Time;durP1;ratioP1;P1;durP2;ratioP2;P2;SDS_P1;SDS_P2;PMS_P1;PMS_P2;Temp;Humidity;BMP_temperature;BMP_pressure;BME280_temperature;BME280_humidity;BME280_pressure;Samples;Min_cycle;Max_cycle;Signal;HPM_P1;HPM_P2
2021/08/09 00:02:17;;;;;;;7.03;3.00;;;;;;;;;;5035485;28;20477;-70
2021/08/09 00:04:43;;;;;;;3.40;2.83;;;;;;;;;;5035440;28;20522;-72
2021/08/09 00:07:10;;;;;;;4.27;3.00;;;;;;;;;;5034793;28;20457;-73
2021/08/09 00:09:36;;;;;;;3.20;2.90;;;;;;;;;;5035457;28;20523;-73
2021/08/09 00:12:02;;;;;;;3.67;3.10;;;;;;;;;;5035269;28;20441;-72
2021/08/09 00:14:29;;;;;;;4.13;3.07;;;;;;;;;;5035306;28;20467;-71
2021/08/09 00:16:55;;;;;;;6.00;2.97;;;;;;;;;;5033325;28;20841;-71
2021/08/09 00:19:21;;;;;;;3.77;3.20;;;;;;;;;;5033811;28;20471;-70
2021/08/09 00:21:47;;;;;;;4.80;3.17;;;;;;;;;;5034646;28;20422;-70
2021/08/09 00:24:13;;;;;;;5.23;3.53;;;;;;;;;;5035095;28;20435;-74
2021/08/09 00:26:39;;;;;;;3.77;3.37;;;;;;;;;;5034677;28;20424;-72
2021/08/09 00:29:05;;;;;;;3.10;2.80;;;;;;;;;;5034919;28;20467;-73
2021/08/09 00:31:31;;;;;;;3.80;2.90;;;;;;;;;;5035037;28;20414;-73
2021/08/09 00:33:57;;;;;;;3.53;2.90;;;;;;;;;;5034679;28;20434;-71
2021/08/09 00:36:23;;;;;;;5.43;3.20;;;;;;;;;;5034873;28;20471;-73
2021/08/09 00:38:49;;;;;;;5.60;3.30;;;;;;;;;;5034962;28;20468;-74
2021/08/09 00:41:15;;;;;;;3.60;2.93;;;;;;;;;;5034836;28;20414;-73
2021/08/09 00:43:41;;;;;;;3.20;2.87;;;;;;;;;;5034715;28;20457;-72
2021/08/09 00:46:07;;;;;;;4.30;2.70;;;;;;;;;;5034590;28;20413;-72
2021/08/09 00:48:34;;;;;;;3.63;2.60;;;;;;;;;;5037938;28;20477;-71
2021/08/09 00:51:01;;;;;;;3.70;2.83;;;;;;;;;;5034601;28;20414;-73
2021/08/09 00:53:28;;;;;;;3.67;2.77;;;;;;;;;;5034393;28;20529;-70
2021/08/09 00:55:54;;;;;;;3.40;2.70;;;;;;;;;;5034665;28;20410;-72
2021/08/09 00:58:20;;;;;;;3.33;2.93;;;;;;;;;;5034104;28;20410;-72
2021/08/09 01:00:47;;;;;;;3.43;2.50;;;;;;;;;;5034429;28;20415;-72
2021/08/09 01:03:13;;;;;;;4.17;3.13;;;;;;;;;;5034279;28;20521;-70
2021/08/09 01:05:40;;;;;;;3.80;2.60;;;;;;;;;;5034492;28;20442;-73
2021/08/09 01:08:12;;;;;;;2.97;2.67;;;;;;;;;;5033753;28;20454;-72
2021/08/09 01:10:45;;;;;;;3.83;3.00;;;;;;;;;;5034580;28;20397;-71
2021/08/09 01:13:19;;;;;;;4.90;3.37;;;;;;;;;;5033938;28;20430;-70
2021/08/09 01:15:46;;;;;;;4.80;3.43;;;;;;;;;;5034391;28;20434;-72
2021/08/09 01:18:12;;;;;;;3.10;2.80;;;;;;;;;;5032149;28;20456;-75
2021/08/09 01:20:51;;;;;;;5.00;3.13;;;;;;;;;;5034174;28;20419;-73
2021/08/09 01:23:26;;;;;;;5.37;3.27;;;;;;;;;;5033444;28;20442;-72
2021/08/09 01:25:57;;;;;;;5.03;2.97;;;;;;;;;;5034124;28;20497;-72
2021/08/09 01:28:25;;;;;;;5.07;3.00;;;;;;;;;;5032738;28;20548;-72
2021/08/09 01:30:52;;;;;;;4.33;3.63;;;;;;;;;;5034008;28;20501;-72
2021/08/09 01:33:18;;;;;;;5.47;3.40;;;;;;;;;;5033342;28;20433;-72
2021/08/09 01:35:45;;;;;;;5.60;3.33;;;;;;;;;;5033699;28;20419;-74
2021/08/09 01:38:11;;;;;;;4.07;3.27;;;;;;;;;;5033179;28;20474;-73
2021/08/09 01:40:37;;;;;;;4.60;3.10;;;;;;;;;;5033880;28;20470;-73
2021/08/09 01:43:03;;;;;;;4.50;2.93;;;;;;;;;;5033728;28;20419;-72
2021/08/09 01:45:29;;;;;;;4.70;3.10;;;;;;;;;;5033434;28;20482;-71
2021/08/09 01:47:57;;;;;;;4.77;2.87;;;;;;;;;;5036384;28;20489;-73
2021/08/09 01:50:23;;;;;;;4.30;2.70;;;;;;;;;;5033695;28;20427;-74
2021/08/09 01:52:49;;;;;;;4.80;3.20;;;;;;;;;;5033681;28;20548;-73
2021/08/09 01:55:16;;;;;;;4.30;2.90;;;;;;;;;;5033267;28;20423;-71
2021/08/09 01:57:42;;;;;;;4.00;2.90;;;;;;;;;;5032776;28;20443;-71
2021/08/09 02:00:10;;;;;;;3.23;2.80;;;;;;;;;;5033191;28;20557;-73
2021/08/09 02:02:36;;;;;;;3.60;3.00;;;;;;;;;;5033448;28;20416;-70
2021/08/09 02:05:10;;;;;;;4.33;2.83;;;;;;;;;;5033153;28;20496;-73
2021/08/09 02:07:40;;;;;;;6.97;2.87;;;;;;;;;;5032994;28;20450;-73
2021/08/09 02:10:07;;;;;;;4.23;2.83;;;;;;;;;;5032881;28;20434;-71
2021/08/09 02:12:52;;;;;;;5.57;3.13;;;;;;;;;;5033530;28;20417;-72
2021/08/09 02:15:20;;;;;;;4.93;3.30;;;;;;;;;;5033178;28;20469;-73
2021/08/09 02:17:53;;;;;;;3.53;2.57;;;;;;;;;;5032905;28;20738;-72
2021/08/09 02:20:24;;;;;;;3.40;2.80;;;;;;;;;;5031863;28;20764;-74
2021/08/09 02:22:52;;;;;;;3.90;3.07;;;;;;;;;;5033187;28;20757;-74
2021/08/09 02:25:20;;;;;;;2.70;2.43;;;;;;;;;;5033269;28;20534;-74
2021/08/09 02:27:48;;;;;;;7.30;3.00;;;;;;;;;;5032598;28;20763;-71
2021/08/09 02:30:18;;;;;;;3.17;2.87;;;;;;;;;;5032963;28;20498;-74
2021/08/09 02:32:45;;;;;;;5.03;3.20;;;;;;;;;;5032984;28;20494;-72
2021/08/09 02:35:15;;;;;;;6.43;3.10;;;;;;;;;;5032984;28;20486;-71
2021/08/09 02:37:41;;;;;;;3.40;3.10;;;;;;;;;;5032452;28;20485;-70
2021/08/09 02:40:08;;;;;;;3.30;3.00;;;;;;;;;;5032690;28;20454;-73
2021/08/09 02:42:34;;;;;;;4.53;3.33;;;;;;;;;;5032893;28;20406;-71
2021/08/09 02:45:01;;;;;;;6.33;3.10;;;;;;;;;;5032746;28;20499;-74
2021/08/09 02:47:28;;;;;;;4.40;3.50;;;;;;;;;;5035918;28;20745;-74
2021/08/09 02:49:55;;;;;;;4.10;2.97;;;;;;;;;;5032861;28;20463;-74
2021/08/09 02:52:21;;;;;;;4.37;3.23;;;;;;;;;;5032778;28;20485;-74
2021/08/09 02:54:48;;;;;;;5.40;3.20;;;;;;;;;;5032982;28;21004;-73
2021/08/09 02:57:15;;;;;;;5.23;3.20;;;;;;;;;;5031174;28;20500;-71
2021/08/09 02:59:41;;;;;;;3.77;3.27;;;;;;;;;;5032734;28;20429;-74
2021/08/09 03:02:07;;;;;;;5.40;3.70;;;;;;;;;;5032415;28;20506;-71
2021/08/09 03:04:35;;;;;;;5.87;4.03;;;;;;;;;;5032641;28;20573;-73
2021/08/09 03:07:05;;;;;;;4.70;4.20;;;;;;;;;;5032100;28;20491;-72
2021/08/09 03:09:31;;;;;;;4.90;3.13;;;;;;;;;;5032872;28;20466;-73
2021/08/09 03:11:57;;;;;;;4.47;3.30;;;;;;;;;;5032504;28;20415;-71
2021/08/09 03:14:30;;;;;;;4.90;3.73;;;;;;;;;;5032452;28;20445;-71
2021/08/09 03:16:57;;;;;;;4.53;3.43;;;;;;;;;;5032455;28;20440;-74
2021/08/09 03:19:23;;;;;;;4.07;3.20;;;;;;;;;;5031174;28;20448;-71
2021/08/09 03:21:53;;;;;;;4.53;3.60;;;;;;;;;;5033750;28;20422;-73
2021/08/09 03:24:20;;;;;;;3.97;3.20;;;;;;;;;;5034891;28;20486;-72
2021/08/09 03:26:46;;;;;;;4.20;3.10;;;;;;;;;;5036184;28;20904;-71
2021/08/09 03:29:12;;;;;;;6.30;3.33;;;;;;;;;;5036093;28;20810;-72
2021/08/09 03:31:38;;;;;;;4.67;3.50;;;;;;;;;;5035186;28;20450;-73
2021/08/09 03:34:05;;;;;;;6.73;4.10;;;;;;;;;;5036280;28;20930;-72
2021/08/09 03:36:32;;;;;;;6.90;3.23;;;;;;;;;;5035705;28;20546;-73
2021/08/09 03:38:58;;;;;;;4.97;3.23;;;;;;;;;;5035842;28;20508;-69
2021/08/09 03:41:24;;;;;;;4.93;3.60;;;;;;;;;;5035844;28;21016;-71
2021/08/09 03:43:50;;;;;;;4.67;3.50;;;;;;;;;;5035696;28;20447;-73
2021/08/09 03:46:16;;;;;;;3.87;3.20;;;;;;;;;;5035910;28;20422;-71
2021/08/09 03:48:42;;;;;;;4.83;3.47;;;;;;;;;;5038538;28;20460;-71
2021/08/09 03:51:08;;;;;;;3.53;2.93;;;;;;;;;;5035706;28;20480;-73
2021/08/09 03:53:34;;;;;;;4.53;3.70;;;;;;;;;;5035542;28;20966;-74
2021/08/09 03:56:00;;;;;;;6.50;3.53;;;;;;;;;;5035484;28;20406;-71
2021/08/09 03:58:26;;;;;;;5.83;3.27;;;;;;;;;;5035443;28;20442;-72
2021/08/09 04:00:52;;;;;;;7.93;3.77;;;;;;;;;;5035374;28;20418;-70
2021/08/09 04:03:18;;;;;;;5.03;4.60;;;;;;;;;;5035401;28;20771;-69
2021/08/09 04:05:44;;;;;;;3.97;3.57;;;;;;;;;;5035291;28;20436;-73
2021/08/09 04:08:10;;;;;;;4.00;3.70;;;;;;;;;;5035173;28;20461;-71
2021/08/09 04:10:38;;;;;;;5.07;3.63;;;;;;;;;;5035247;28;20447;-73
2021/08/09 04:13:04;;;;;;;5.80;3.50;;;;;;;;;;5035475;28;20423;-72
2021/08/09 04:15:30;;;;;;;5.40;4.13;;;;;;;;;;5035615;28;20421;-73
2021/08/09 04:17:56;;;;;;;5.60;3.47;;;;;;;;;;5034909;28;20420;-71
2021/08/09 04:20:22;;;;;;;8.40;3.83;;;;;;;;;;5033742;28;20413;-72
2021/08/09 04:22:48;;;;;;;5.13;3.80;;;;;;;;;;5035126;28;20409;-73
2021/08/09 04:25:15;;;;;;;5.83;3.23;;;;;;;;;;5034896;28;20434;-74
2021/08/09 04:27:41;;;;;;;6.57;3.80;;;;;;;;;;5034755;28;20417;-70
2021/08/09 04:30:07;;;;;;;7.90;4.00;;;;;;;;;;5034914;28;20460;-73
2021/08/09 04:32:40;;;;;;;6.10;3.60;;;;;;;;;;5034714;28;20406;-72
2021/08/09 04:35:11;;;;;;;9.40;4.10;;;;;;;;;;5034543;28;20879;-74
2021/08/09 04:37:37;;;;;;;5.27;3.50;;;;;;;;;;5034539;28;20414;-73
2021/08/09 04:40:04;;;;;;;5.93;3.33;;;;;;;;;;5034882;28;20421;-74
2021/08/09 04:42:30;;;;;;;5.60;3.30;;;;;;;;;;5035132;28;20413;-74
2021/08/09 04:44:56;;;;;;;7.00;4.10;;;;;;;;;;5034386;28;20443;-72
2021/08/09 04:47:22;;;;;;;4.43;3.53;;;;;;;;;;5037759;28;20492;-71
2021/08/09 04:49:48;;;;;;;4.83;3.50;;;;;;;;;;5034524;28;20469;-73
2021/08/09 04:52:14;;;;;;;5.27;3.90;;;;;;;;;;5034520;28;20418;-74
2021/08/09 04:54:40;;;;;;;4.30;3.23;;;;;;;;;;5034582;28;20567;-73
2021/08/09 04:57:06;;;;;;;5.70;3.90;;;;;;;;;;5033871;28;20901;-74
2021/08/09 04:59:32;;;;;;;6.73;4.37;;;;;;;;;;5034773;28;20423;-72
2021/08/09 05:01:58;;;;;;;6.60;4.17;;;;;;;;;;5032988;28;20941;-71
2021/08/09 05:04:24;;;;;;;5.17;3.87;;;;;;;;;;5034617;28;20453;-73
2021/08/09 05:06:50;;;;;;;6.47;3.30;;;;;;;;;;5033809;28;20791;-73
2021/08/09 05:09:16;;;;;;;5.83;3.43;;;;;;;;;;5034362;28;20467;-73
2021/08/09 05:11:42;;;;;;;6.13;4.20;;;;;;;;;;5034016;28;20765;-73
2021/08/09 05:14:08;;;;;;;168.17;63.23;;;;;;;;;;5034239;28;20435;-75
2021/08/09 05:16:36;;;;;;;18.07;9.50;;;;;;;;;;5033624;28;20413;-73
2021/08/09 05:19:03;;;;;;;63.87;38.03;;;;;;;;;;5033994;28;20422;-71
2021/08/09 05:21:30;;;;;;;84.23;43.60;;;;;;;;;;5028568;28;20422;-73
2021/08/09 05:23:57;;;;;;;101.97;47.87;;;;;;;;;;5034125;28;20442;-75
2021/08/09 05:26:23;;;;;;;78.27;42.10;;;;;;;;;;5033822;28;20426;-74
2021/08/09 05:28:49;;;;;;;30.77;16.37;;;;;;;;;;5033405;28;20855;-72
2021/08/09 05:31:15;;;;;;;13.10;8.00;;;;;;;;;;5033846;28;20412;-71
2021/08/09 05:33:41;;;;;;;10.70;6.23;;;;;;;;;;5033953;28;20430;-71
2021/08/09 05:36:07;;;;;;;7.03;4.20;;;;;;;;;;5033571;28;20513;-73
2021/08/09 05:38:33;;;;;;;5.93;4.60;;;;;;;;;;5033443;28;20474;-73
2021/08/09 05:40:59;;;;;;;5.40;3.87;;;;;;;;;;5033438;28;20414;-73
2021/08/09 05:43:25;;;;;;;5.60;4.23;;;;;;;;;;5033382;28;20434;-72
2021/08/09 05:45:51;;;;;;;6.63;4.67;;;;;;;;;;5032467;28;20422;-71
2021/08/09 05:48:18;;;;;;;5.33;3.97;;;;;;;;;;5032968;28;20466;-72
2021/08/09 05:50:43;;;;;;;5.73;4.57;;;;;;;;;;5033448;28;20420;-71
2021/08/09 05:53:09;;;;;;;6.27;4.30;;;;;;;;;;5033330;28;20413;-73
2021/08/09 05:55:35;;;;;;;6.23;5.17;;;;;;;;;;5033724;28;20422;-73
2021/08/09 05:58:02;;;;;;;35.80;23.30;;;;;;;;;;5032992;28;20407;-74
2021/08/09 06:00:28;;;;;;;16.00;10.40;;;;;;;;;;5033239;28;20493;-71
2021/08/09 06:02:54;;;;;;;7.87;5.90;;;;;;;;;;5032111;28;20442;-70
2021/08/09 06:05:20;;;;;;;8.23;4.97;;;;;;;;;;5033169;28;20899;-73
2021/08/09 06:07:46;;;;;;;5.90;3.43;;;;;;;;;;5033002;28;20417;-70
2021/08/09 06:10:12;;;;;;;7.63;3.87;;;;;;;;;;5031971;28;20485;-74
2021/08/09 06:12:38;;;;;;;6.70;4.13;;;;;;;;;;5033044;28;20463;-74
2021/08/09 06:15:07;;;;;;;6.27;3.40;;;;;;;;;;5032893;28;20434;-73
2021/08/09 06:17:36;;;;;;;5.37;3.80;;;;;;;;;;5032628;28;20552;-71
2021/08/09 06:20:05;;;;;;;5.53;3.87;;;;;;;;;;5031685;28;20443;-72
2021/08/09 06:22:31;;;;;;;6.03;4.63;;;;;;;;;;5032891;28;20406;-70
2021/08/09 06:24:57;;;;;;;4.63;3.50;;;;;;;;;;5032710;28;20486;-72
2021/08/09 06:27:23;;;;;;;6.03;3.40;;;;;;;;;;5032367;28;20423;-72
2021/08/09 06:29:50;;;;;;;5.00;3.57;;;;;;;;;;5032784;28;20463;-71
2021/08/09 06:32:16;;;;;;;6.70;3.07;;;;;;;;;;5032999;28;20777;-70
2021/08/09 06:34:42;;;;;;;5.17;3.40;;;;;;;;;;5033045;28;20438;-72
2021/08/09 06:37:08;;;;;;;3.63;2.93;;;;;;;;;;5032633;28;20411;-72
2021/08/09 06:39:34;;;;;;;9.00;3.60;;;;;;;;;;5032690;28;20522;-71
2021/08/09 06:42:03;;;;;;;4.33;3.43;;;;;;;;;;5032485;28;20446;-73
2021/08/09 06:44:31;;;;;;;6.90;3.60;;;;;;;;;;5032648;28;20443;-71
2021/08/09 06:46:57;;;;;;;4.83;3.80;;;;;;;;;;5032387;28;20842;-73
2021/08/09 06:49:23;;;;;;;4.00;3.33;;;;;;;;;;5033124;28;20491;-70
2021/08/09 06:51:49;;;;;;;4.00;3.50;;;;;;;;;;5032503;28;20416;-71
2021/08/09 06:54:15;;;;;;;7.67;3.70;;;;;;;;;;5032446;28;20444;-73
2021/08/09 06:56:41;;;;;;;8.50;3.73;;;;;;;;;;5033411;28;20751;-71
2021/08/09 06:59:07;;;;;;;11.00;3.53;;;;;;;;;;5036874;28;20470;-71
2021/08/09 07:01:33;;;;;;;6.30;3.43;;;;;;;;;;5035278;28;20855;-70
2021/08/09 07:04:00;;;;;;;5.83;3.80;;;;;;;;;;5036376;28;20885;-73
2021/08/09 07:06:26;;;;;;;6.80;3.70;;;;;;;;;;5036520;28;20432;-70
2021/08/09 07:08:54;;;;;;;5.23;3.47;;;;;;;;;;5035785;28;20486;-72
2021/08/09 07:11:21;;;;;;;10.40;3.70;;;;;;;;;;5036749;28;20447;-72
2021/08/09 07:13:47;;;;;;;6.53;3.30;;;;;;;;;;5036099;28;20439;-71
2021/08/09 07:16:13;;;;;;;7.27;4.43;;;;;;;;;;5036717;28;20886;-72
2021/08/09 07:18:39;;;;;;;4.00;3.30;;;;;;;;;;5035860;28;20444;-73
2021/08/09 07:21:09;;;;;;;5.70;3.80;;;;;;;;;;5036572;28;20443;-73
2021/08/09 07:23:35;;;;;;;8.27;3.50;;;;;;;;;;5030886;28;20437;-70
2021/08/09 07:26:01;;;;;;;6.67;3.87;;;;;;;;;;5036336;28;20574;-71
2021/08/09 07:28:27;;;;;;;5.30;3.23;;;;;;;;;;5035577;28;20586;-71
2021/08/09 07:30:53;;;;;;;4.90;3.87;;;;;;;;;;5036175;28;20462;-70
2021/08/09 07:33:19;;;;;;;4.77;3.80;;;;;;;;;;5041455;28;20439;-72
2021/08/09 07:35:45;;;;;;;5.40;3.50;;;;;;;;;;5036060;28;20411;-70
2021/08/09 07:38:11;;;;;;;8.47;5.27;;;;;;;;;;5035479;28;20482;-73
2021/08/09 07:40:37;;;;;;;4.93;3.57;;;;;;;;;;5034282;28;20421;-72
2021/08/09 07:43:03;;;;;;;6.20;3.60;;;;;;;;;;5031234;28;20432;-73
2021/08/09 07:45:29;;;;;;;4.93;4.37;;;;;;;;;;5031334;28;20534;-73
2021/08/09 07:47:57;;;;;;;7.17;3.77;;;;;;;;;;5031442;28;20424;-73
2021/08/09 07:50:23;;;;;;;5.60;3.53;;;;;;;;;;5031811;28;20773;-71
2021/08/09 07:52:49;;;;;;;4.67;3.50;;;;;;;;;;5031943;28;20444;-73
2021/08/09 07:55:16;;;;;;;6.70;4.27;;;;;;;;;;5031936;28;20433;-72
2021/08/09 07:57:42;;;;;;;6.10;3.40;;;;;;;;;;5031594;28;20455;-70
2021/08/09 08:00:09;;;;;;;6.57;3.90;;;;;;;;;;5031693;28;20491;-73
2021/08/09 08:02:35;;;;;;;5.40;4.07;;;;;;;;;;5031748;28;20508;-73
2021/08/09 08:05:02;;;;;;;4.50;3.57;;;;;;;;;;5031742;28;20522;-71
2021/08/09 08:07:28;;;;;;;5.30;3.30;;;;;;;;;;5031052;28;20459;-70
2021/08/09 08:09:54;;;;;;;4.93;3.73;;;;;;;;;;5030015;28;20542;-73
2021/08/09 08:12:20;;;;;;;5.90;3.40;;;;;;;;;;5031551;28;20416;-69
2021/08/09 08:14:46;;;;;;;4.47;3.50;;;;;;;;;;5031592;28;20443;-72
2021/08/09 08:17:12;;;;;;;6.10;3.30;;;;;;;;;;5031232;28;20413;-71
2021/08/09 08:19:38;;;;;;;4.07;3.60;;;;;;;;;;5031311;28;20428;-72
2021/08/09 08:22:04;;;;;;;5.80;3.50;;;;;;;;;;5031518;28;20420;-72
2021/08/09 08:24:30;;;;;;;7.70;3.43;;;;;;;;;;5031416;28;20498;-72
2021/08/09 08:26:56;;;;;;;8.77;3.60;;;;;;;;;;5029747;28;20856;-69
2021/08/09 08:29:22;;;;;;;9.40;4.00;;;;;;;;;;5031219;28;20872;-71
2021/08/09 08:31:48;;;;;;;4.30;3.37;;;;;;;;;;5036928;28;20480;-71
2021/08/09 08:34:14;;;;;;;5.00;3.43;;;;;;;;;;5030972;28;20440;-71
2021/08/09 08:36:40;;;;;;;7.50;3.90;;;;;;;;;;5030986;28;20832;-70
2021/08/09 08:39:10;;;;;;;5.87;3.87;;;;;;;;;;5029724;28;20448;-72
2021/08/09 08:41:36;;;;;;;7.97;4.10;;;;;;;;;;5031369;28;20420;-71
2021/08/09 08:44:02;;;;;;;8.03;3.70;;;;;;;;;;5029751;28;20472;-72
2021/08/09 08:46:28;;;;;;;10.03;4.20;;;;;;;;;;5031004;28;20451;-72
2021/08/09 08:48:58;;;;;;;6.53;3.70;;;;;;;;;;5030423;28;20848;-72
2021/08/09 08:51:24;;;;;;;7.07;3.60;;;;;;;;;;5030918;28;20417;-70
2021/08/09 08:53:50;;;;;;;5.90;3.27;;;;;;;;;;5030720;28;20523;-71
2021/08/09 08:56:16;;;;;;;7.00;4.00;;;;;;;;;;5030526;28;20584;-72
2021/08/09 08:58:42;;;;;;;5.87;3.20;;;;;;;;;;5030382;28;20793;-72
2021/08/09 09:01:08;;;;;;;5.13;3.30;;;;;;;;;;5030647;28;20425;-73
2021/08/09 09:03:39;;;;;;;6.00;4.00;;;;;;;;;;5030521;28;20442;-71
2021/08/09 09:06:09;;;;;;;8.23;3.77;;;;;;;;;;5030627;28;20813;-73
2021/08/09 09:08:39;;;;;;;5.40;3.20;;;;;;;;;;5030119;28;20459;-72
2021/08/09 09:11:05;;;;;;;4.87;2.97;;;;;;;;;;5030561;28;20413;-72
2021/08/09 09:13:32;;;;;;;5.30;3.60;;;;;;;;;;5030389;28;20445;-72
2021/08/09 09:15:59;;;;;;;4.90;3.20;;;;;;;;;;5030391;28;20417;-70
2021/08/09 09:18:29;;;;;;;5.13;3.00;;;;;;;;;;5029831;28;20423;-70
2021/08/09 09:20:55;;;;;;;5.50;3.30;;;;;;;;;;5030222;28;20417;-73
2021/08/09 09:23:23;;;;;;;4.40;3.23;;;;;;;;;;5030156;28;20440;-72
2021/08/09 09:25:49;;;;;;;4.87;3.70;;;;;;;;;;5030262;28;20428;-71
2021/08/09 09:28:22;;;;;;;5.10;2.93;;;;;;;;;;5029648;28;20875;-71
2021/08/09 09:30:48;;;;;;;5.57;3.50;;;;;;;;;;5023180;28;20415;-71
2021/08/09 09:33:14;;;;;;;4.73;2.80;;;;;;;;;;5035406;28;20434;-73
2021/08/09 09:35:40;;;;;;;5.57;3.27;;;;;;;;;;5030243;28;20413;-70
2021/08/09 09:38:06;;;;;;;3.93;2.60;;;;;;;;;;5023724;28;20435;-72
2021/08/09 09:40:38;;;;;;;6.63;3.00;;;;;;;;;;5030093;28;20417;-71
2021/08/09 09:43:14;;;;;;;4.50;3.10;;;;;;;;;;5029963;28;20428;-70
2021/08/09 09:45:48;;;;;;;3.40;2.93;;;;;;;;;;5030070;28;20495;-73
2021/08/09 09:48:14;;;;;;;4.43;3.00;;;;;;;;;;5029507;28;20458;-71
2021/08/09 09:50:42;;;;;;;4.67;3.43;;;;;;;;;;5029813;28;20412;-70
2021/08/09 09:53:15;;;;;;;5.03;3.03;;;;;;;;;;5029751;28;20495;-72
2021/08/09 09:55:44;;;;;;;4.10;2.47;;;;;;;;;;5029699;28;20466;-71
2021/08/09 09:58:10;;;;;;;3.97;2.40;;;;;;;;;;5029344;28;20416;-70
2021/08/09 10:00:38;;;;;;;5.67;2.50;;;;;;;;;;5029551;28;20504;-73
2021/08/09 10:03:04;;;;;;;5.70;2.97;;;;;;;;;;5029601;28;20421;-73
2021/08/09 10:05:30;;;;;;;3.10;2.60;;;;;;;;;;5029162;28;20589;-72
2021/08/09 10:08:00;;;;;;;3.90;2.50;;;;;;;;;;5029088;28;20501;-71
2021/08/09 10:10:27;;;;;;;4.53;2.73;;;;;;;;;;5029371;28;20424;-73
2021/08/09 10:12:53;;;;;;;3.63;2.03;;;;;;;;;;5029411;28;20492;-72
2021/08/09 10:15:19;;;;;;;2.63;1.90;;;;;;;;;;5029813;28;20413;-71
2021/08/09 10:17:47;;;;;;;2.80;2.20;;;;;;;;;;5029137;28;20404;-72
2021/08/09 10:20:15;;;;;;;3.90;2.40;;;;;;;;;;5029271;28;20443;-70
2021/08/09 10:22:54;;;;;;;4.30;2.00;;;;;;;;;;5028069;28;20439;-72
2021/08/09 10:25:40;;;;;;;3.50;2.20;;;;;;;;;;5024973;28;20438;-71
2021/08/09 10:28:06;;;;;;;3.37;2.33;;;;;;;;;;5028918;28;21006;-71
2021/08/09 10:30:34;;;;;;;3.20;2.10;;;;;;;;;;5029042;28;20444;-72
2021/08/09 10:33:01;;;;;;;2.90;1.90;;;;;;;;;;5033705;28;20419;-72
2021/08/09 10:35:40;;;;;;;3.70;2.10;;;;;;;;;;5029210;28;20508;-71
2021/08/09 10:38:13;;;;;;;3.37;2.30;;;;;;;;;;5022773;28;20411;-73
2021/08/09 10:40:39;;;;;;;3.57;2.40;;;;;;;;;;5029047;28;20474;-71
2021/08/09 10:43:05;;;;;;;3.50;2.37;;;;;;;;;;5029084;28;20932;-71
2021/08/09 10:45:48;;;;;;;2.93;2.00;;;;;;;;;;5028974;28;21282;-71
2021/08/09 10:48:14;;;;;;;5.60;2.47;;;;;;;;;;5028715;28;21212;-70
2021/08/09 10:50:41;;;;;;;3.60;2.00;;;;;;;;;;5028828;28;20423;-72
2021/08/09 10:53:25;;;;;;;4.33;2.00;;;;;;;;;;5029064;28;20408;-70
2021/08/09 10:55:53;;;;;;;4.93;2.13;;;;;;;;;;5028995;28;20412;-71
2021/08/09 10:58:38;;;;;;;4.67;2.07;;;;;;;;;;5021566;28;20908;-70
2021/08/09 11:01:04;;;;;;;2.60;1.90;;;;;;;;;;5025426;28;20468;-73
2021/08/09 11:03:30;;;;;;;4.23;2.23;;;;;;;;;;5028998;28;20440;-71
2021/08/09 11:05:56;;;;;;;3.23;1.93;;;;;;;;;;5028880;28;20541;-70
2021/08/09 11:08:24;;;;;;;3.20;1.67;;;;;;;;;;5028493;28;20504;-72
2021/08/09 11:11:01;;;;;;;4.03;2.07;;;;;;;;;;5028868;28;20444;-71
2021/08/09 11:13:48;;;;;;;4.10;2.37;;;;;;;;;;5028779;28;20436;-71
2021/08/09 11:16:28;;;;;;;4.57;2.80;;;;;;;;;;5025038;28;21052;-72
2021/08/09 11:18:58;;;;;;;2.90;2.30;;;;;;;;;;5024498;28;20545;-71
2021/08/09 11:21:25;;;;;;;3.53;2.30;;;;;;;;;;5028818;28;20420;-69
2021/08/09 11:23:51;;;;;;;4.60;2.00;;;;;;;;;;5028725;28;20451;-71
2021/08/09 11:26:21;;;;;;;3.60;2.10;;;;;;;;;;5028694;28;20482;-71
2021/08/09 11:29:03;;;;;;;2.37;1.73;;;;;;;;;;5028193;28;20539;-70
2021/08/09 11:31:43;;;;;;;3.30;1.77;;;;;;;;;;5030614;28;20420;-73
2021/08/09 11:34:09;;;;;;;3.70;2.40;;;;;;;;;;5028876;28;20797;-73
2021/08/09 11:36:35;;;;;;;4.40;2.10;;;;;;;;;;5030887;28;20419;-70
2021/08/09 11:39:03;;;;;;;3.33;2.37;;;;;;;;;;5028778;28;20427;-72
2021/08/09 11:41:29;;;;;;;4.77;2.17;;;;;;;;;;5028499;28;20448;-72
2021/08/09 11:44:05;;;;;;;4.50;2.77;;;;;;;;;;5029884;28;20468;-72
2021/08/09 11:46:31;;;;;;;3.83;2.37;;;;;;;;;;5030516;28;20924;-70
2021/08/09 11:48:58;;;;;;;3.63;2.20;;;;;;;;;;5031868;28;20459;-71
2021/08/09 11:51:25;;;;;;;3.13;2.10;;;;;;;;;;5031920;28;20511;-71
2021/08/09 11:53:52;;;;;;;5.13;2.13;;;;;;;;;;5031874;28;20428;-71
2021/08/09 11:56:19;;;;;;;4.17;2.10;;;;;;;;;;5031747;28;20400;-73
2021/08/09 11:58:46;;;;;;;4.50;1.90;;;;;;;;;;5031538;28;20408;-70
2021/08/09 12:01:22;;;;;;;3.30;2.40;;;;;;;;;;5031639;28;20999;-71
2021/08/09 12:04:05;;;;;;;4.23;1.90;;;;;;;;;;5031878;28;20911;-73
2021/08/09 12:06:32;;;;;;;2.73;1.90;;;;;;;;;;5030331;28;21027;-72
2021/08/09 12:08:59;;;;;;;3.50;2.17;;;;;;;;;;5031404;28;20468;-70
2021/08/09 12:11:25;;;;;;;5.03;2.00;;;;;;;;;;5031758;28;20423;-72
2021/08/09 12:14:02;;;;;;;2.17;1.83;;;;;;;;;;5031678;28;20432;-73
2021/08/09 12:16:28;;;;;;;3.17;2.03;;;;;;;;;;5031769;28;20412;-71
2021/08/09 12:18:55;;;;;;;2.97;2.33;;;;;;;;;;5031650;28;20420;-70
2021/08/09 12:21:21;;;;;;;3.63;1.77;;;;;;;;;;5031581;28;20416;-72
2021/08/09 12:23:54;;;;;;;3.43;2.10;;;;;;;;;;5031445;28;20436;-72
2021/08/09 12:26:34;;;;;;;3.60;2.27;;;;;;;;;;5031619;28;20416;-71
2021/08/09 12:29:06;;;;;;;3.10;2.07;;;;;;;;;;5033486;28;20526;-72
2021/08/09 12:31:34;;;;;;;3.57;2.00;;;;;;;;;;5032024;28;20440;-72
2021/08/09 12:34:08;;;;;;;3.93;2.17;;;;;;;;;;5031704;28;20440;-72
2021/08/09 12:36:35;;;;;;;2.40;1.87;;;;;;;;;;5030905;28;20404;-73
2021/08/09 12:39:01;;;;;;;3.20;1.87;;;;;;;;;;5031361;28;20413;-71
2021/08/09 12:41:28;;;;;;;2.60;1.80;;;;;;;;;;5031050;28;20468;-71
2021/08/09 12:43:54;;;;;;;2.27;1.80;;;;;;;;;;5036304;28;20437;-72
2021/08/09 12:46:21;;;;;;;2.53;1.90;;;;;;;;;;5030945;28;20413;-72
2021/08/09 12:48:50;;;;;;;2.60;2.00;;;;;;;;;;5030720;28;20521;-70
2021/08/09 12:51:17;;;;;;;5.03;2.10;;;;;;;;;;5032367;28;20985;-72
2021/08/09 12:53:43;;;;;;;5.40;2.10;;;;;;;;;;5030775;28;20433;-72
2021/08/09 12:56:09;;;;;;;3.37;2.10;;;;;;;;;;5030574;28;20416;-72
2021/08/09 12:58:36;;;;;;;2.93;1.77;;;;;;;;;;5030253;28;20421;-70
2021/08/09 13:01:02;;;;;;;3.80;1.90;;;;;;;;;;5029397;28;20796;-71
2021/08/09 13:03:28;;;;;;;3.20;2.00;;;;;;;;;;5030511;28;20953;-73
2021/08/09 13:05:54;;;;;;;3.63;2.33;;;;;;;;;;5030639;28;20455;-71
2021/08/09 13:08:21;;;;;;;3.63;2.10;;;;;;;;;;5030327;28;20836;-70
2021/08/09 13:10:47;;;;;;;2.60;2.23;;;;;;;;;;5030651;28;20420;-73
2021/08/09 13:13:13;;;;;;;5.63;3.13;;;;;;;;;;5029072;28;20449;-71
2021/08/09 13:15:39;;;;;;;3.10;2.10;;;;;;;;;;5030560;28;20421;-72
2021/08/09 13:18:05;;;;;;;3.20;2.23;;;;;;;;;;5030307;28;20416;-72
2021/08/09 13:20:31;;;;;;;3.97;2.47;;;;;;;;;;5030580;28;20413;-71
2021/08/09 13:22:57;;;;;;;4.00;2.33;;;;;;;;;;5030533;28;20775;-73
2021/08/09 13:25:24;;;;;;;3.20;2.07;;;;;;;;;;5030467;28;20447;-72
2021/08/09 13:27:50;;;;;;;2.90;2.10;;;;;;;;;;5029897;28;20420;-71
2021/08/09 13:30:16;;;;;;;5.00;2.57;;;;;;;;;;5030458;28;20467;-73
2021/08/09 13:32:42;;;;;;;4.30;2.43;;;;;;;;;;5029948;28;20420;-72
2021/08/09 13:35:09;;;;;;;3.20;2.40;;;;;;;;;;5027694;28;20574;-70
2021/08/09 13:37:35;;;;;;;3.13;2.27;;;;;;;;;;5020007;28;20412;-69
2021/08/09 13:40:01;;;;;;;6.17;2.70;;;;;;;;;;5030098;28;20511;-73
2021/08/09 13:42:28;;;;;;;2.83;2.30;;;;;;;;;;5028759;28;20419;-71
2021/08/09 13:44:54;;;;;;;3.03;2.20;;;;;;;;;;5029731;28;20476;-70
2021/08/09 13:47:20;;;;;;;6.13;2.47;;;;;;;;;;5029583;28;20417;-70
2021/08/09 13:49:46;;;;;;;3.00;2.17;;;;;;;;;;5029849;28;20542;-71
2021/08/09 13:52:13;;;;;;;3.97;2.70;;;;;;;;;;5029878;28;20416;-73
2021/08/09 13:54:39;;;;;;;4.00;2.70;;;;;;;;;;5029578;28;20956;-72
2021/08/09 13:57:05;;;;;;;3.70;2.20;;;;;;;;;;5029158;28;20419;-72
2021/08/09 13:59:31;;;;;;;5.80;2.77;;;;;;;;;;5029637;28;20428;-73
2021/08/09 14:01:58;;;;;;;4.50;2.60;;;;;;;;;;5029790;28;20481;-70
2021/08/09 14:04:24;;;;;;;4.27;2.20;;;;;;;;;;5029515;28;20838;-71
2021/08/09 14:06:50;;;;;;;5.60;2.50;;;;;;;;;;5028492;28;20443;-70
2021/08/09 14:09:16;;;;;;;4.50;2.77;;;;;;;;;;5029352;28;20587;-74
2021/08/09 14:11:42;;;;;;;3.67;2.70;;;;;;;;;;5029597;28;20412;-71
2021/08/09 14:14:08;;;;;;;4.10;2.23;;;;;;;;;;5029335;28;20471;-73
2021/08/09 14:16:34;;;;;;;3.93;2.30;;;;;;;;;;5029411;28;20416;-73
2021/08/09 14:19:00;;;;;;;4.10;2.47;;;;;;;;;;5029082;28;20470;-72
2021/08/09 14:21:26;;;;;;;3.53;2.17;;;;;;;;;;5029601;28;21093;-71
2021/08/09 14:23:52;;;;;;;4.33;2.40;;;;;;;;;;5029213;28;20445;-72
2021/08/09 14:26:18;;;;;;;4.80;2.40;;;;;;;;;;5029333;28;20483;-72
2021/08/09 14:28:44;;;;;;;4.43;3.00;;;;;;;;;;5028618;28;20471;-73
2021/08/09 14:31:10;;;;;;;3.40;2.20;;;;;;;;;;5029928;28;20420;-71
2021/08/09 14:33:37;;;;;;;4.83;2.63;;;;;;;;;;5029310;28;20433;-73
2021/08/09 14:36:03;;;;;;;4.80;2.13;;;;;;;;;;5029329;28;20968;-71
2021/08/09 14:38:30;;;;;;;4.30;2.40;;;;;;;;;;5028868;28;20447;-73
2021/08/09 14:40:56;;;;;;;3.87;2.53;;;;;;;;;;5029014;28;20420;-73
2021/08/09 14:43:22;;;;;;;3.47;2.30;;;;;;;;;;5029016;28;20559;-73
2021/08/09 14:45:48;;;;;;;3.77;2.60;;;;;;;;;;5029300;28;20428;-71